sensor_id;sensor_type;location;lat;lon;timestamp;P1;durP1;ratioP1;P2;durP2;ratioP2
23745;SDS011;12053;48.878;9.632;2022-10-16T00:02:26;3.90;;;2.10;;
23745;SDS011;12053;48.878;9.632;2022-10-16T00:04:53;4.10;;;1.90;;
23745;SDS011;12053;48.878;9.632;2022-10-16T00:07:20;2.05;;;1.83;;
23745;SDS011;12053;48.878;9.632;2022-10-16T00:09:48;5.10;;;1.90;;
23745;SDS011;12053;48.878;9.632;2022-10-16T00:12:15;2.90;;;2.13;;
23745;SDS011;12053;48.878;9.632;2022-10-16T00:14:42;4.88;;;1.80;;
23745;SDS011;12053;48.878;9.632;2022-10-16T00:17:10;2.85;;;1.88;;
23745;SDS011;12053;48.878;9.632;2022-10-16T00:19:37;3.72;;;1.70;;
23745;SDS011;12053;48.878;9.632;2022-10-16T00:22:04;2.97;;;1.70;;
23745;SDS011;12053;48.878;9.632;2022-10-16T00:24:31;2.42;;;1.58;;
23745;SDS011;12053;48.878;9.632;2022-10-16T00:26:58;10.40;;;1.75;;
23745;SDS011;12053;48.878;9.632;2022-10-16T00:29:25;2.45;;;1.70;;
23745;SDS011;12053;48.878;9.632;2022-10-16T00:31:52;4.43;;;1.73;;
23745;SDS011;12053;48.878;9.632;2022-10-16T00:34:19;5.78;;;1.77;;
23745;SDS011;12053;48.878;9.632;2022-10-16T00:36:47;4.15;;;1.48;;
23745;SDS011;12053;48.878;9.632;2022-10-16T00:39:14;2.53;;;1.75;;
23745;SDS011;12053;48.878;9.632;2022-10-16T00:41:41;3.85;;;1.75;;
23745;SDS011;12053;48.878;9.632;2022-10-16T00:46:54;1.85;;;1.45;;
23745;SDS011;12053;48.878;9.632;2022-10-16T00:49:21;3.53;;;2.10;;
23745;SDS011;12053;48.878;9.632;2022-10-16T00:51:52;3.47;;;1.95;;
23745;SDS011;12053;48.878;9.632;2022-10-16T00:54:24;4.32;;;2.15;;
23745;SDS011;12053;48.878;9.632;2022-10-16T00:56:51;2.25;;;1.60;;
23745;SDS011;12053;48.878;9.632;2022-10-16T00:59:23;4.00;;;1.35;;
23745;SDS011;12053;48.878;9.632;2022-10-16T01:01:51;4.15;;;1.27;;
23745;SDS011;12053;48.878;9.632;2022-10-16T01:04:18;1.40;;;1.30;;
23745;SDS011;12053;48.878;9.632;2022-10-16T01:06:48;2.00;;;1.17;;
23745;SDS011;12053;48.878;9.632;2022-10-16T01:09:39;2.55;;;1.30;;
23745;SDS011;12053;48.878;9.632;2022-10-16T01:12:22;2.53;;;1.50;;
23745;SDS011;12053;48.878;9.632;2022-10-16T01:20:27;2.55;;;1.70;;
23745;SDS011;12053;48.878;9.632;2022-10-16T01:25:25;2.05;;;1.60;;
23745;SDS011;12053;48.878;9.632;2022-10-16T01:27:53;1.77;;;1.33;;
23745;SDS011;12053;48.878;9.632;2022-10-16T01:30:25;2.70;;;1.13;;
23745;SDS011;12053;48.878;9.632;2022-10-16T01:32:55;4.70;;;1.35;;
23745;SDS011;12053;48.878;9.632;2022-10-16T01:35:30;3.88;;;1.33;;
23745;SDS011;12053;48.878;9.632;2022-10-16T01:40:41;1.88;;;1.35;;
23745;SDS011;12053;48.878;9.632;2022-10-16T01:43:11;5.50;;;1.38;;
23745;SDS011;12053;48.878;9.632;2022-10-16T01:45:39;2.28;;;1.52;;
23745;SDS011;12053;48.878;9.632;2022-10-16T01:48:07;2.55;;;1.20;;
23745;SDS011;12053;48.878;9.632;2022-10-16T01:50:38;3.33;;;1.92;;
23745;SDS011;12053;48.878;9.632;2022-10-16T01:53:07;3.13;;;1.60;;
23745;SDS011;12053;48.878;9.632;2022-10-16T01:55:37;1.60;;;1.50;;
23745;SDS011;12053;48.878;9.632;2022-10-16T01:58:05;2.63;;;1.27;;
23745;SDS011;12053;48.878;9.632;2022-10-16T02:00:34;3.50;;;1.50;;
23745;SDS011;12053;48.878;9.632;2022-10-16T02:03:04;3.58;;;1.55;;
23745;SDS011;12053;48.878;9.632;2022-10-16T02:05:37;1.75;;;1.58;;
23745;SDS011;12053;48.878;9.632;2022-10-16T02:08:07;3.42;;;1.52;;
23745;SDS011;12053;48.878;9.632;2022-10-16T02:10:34;2.80;;;1.17;;
23745;SDS011;12053;48.878;9.632;2022-10-16T02:15:29;2.20;;;1.10;;
23745;SDS011;12053;48.878;9.632;2022-10-16T02:17:56;3.33;;;1.30;;
23745;SDS011;12053;48.878;9.632;2022-10-16T02:20:25;3.17;;;1.33;;
23745;SDS011;12053;48.878;9.632;2022-10-16T02:22:54;1.42;;;1.25;;
23745;SDS011;12053;48.878;9.632;2022-10-16T02:25:24;4.88;;;1.10;;
23745;SDS011;12053;48.878;9.632;2022-10-16T02:27:59;2.15;;;1.05;;
23745;SDS011;12053;48.878;9.632;2022-10-16T02:32:58;2.22;;;1.00;;
23745;SDS011;12053;48.878;9.632;2022-10-16T02:35:27;3.15;;;1.20;;
23745;SDS011;12053;48.878;9.632;2022-10-16T02:37:54;1.13;;;0.90;;
23745;SDS011;12053;48.878;9.632;2022-10-16T02:40:22;3.45;;;1.23;;
23745;SDS011;12053;48.878;9.632;2022-10-16T02:42:51;4.68;;;1.20;;
23745;SDS011;12053;48.878;9.632;2022-10-16T02:45:19;5.68;;;2.28;;
23745;SDS011;12053;48.878;9.632;2022-10-16T02:47:46;6.95;;;3.50;;
23745;SDS011;12053;48.878;9.632;2022-10-16T02:50:14;7.60;;;4.70;;
23745;SDS011;12053;48.878;9.632;2022-10-16T02:52:41;10.50;;;6.45;;
23745;SDS011;12053;48.878;9.632;2022-10-16T02:55:08;14.77;;;7.40;;
23745;SDS011;12053;48.878;9.632;2022-10-16T02:57:35;13.13;;;6.50;;
23745;SDS011;12053;48.878;9.632;2022-10-16T03:00:10;12.55;;;6.60;;
23745;SDS011;12053;48.878;9.632;2022-10-16T03:02:38;9.43;;;5.63;;
23745;SDS011;12053;48.878;9.632;2022-10-16T03:05:05;5.80;;;3.80;;
23745;SDS011;12053;48.878;9.632;2022-10-16T03:07:33;3.00;;;2.10;;
23745;SDS011;12053;48.878;9.632;2022-10-16T03:10:00;1.88;;;1.30;;
23745;SDS011;12053;48.878;9.632;2022-10-16T03:12:27;1.50;;;1.33;;
23745;SDS011;12053;48.878;9.632;2022-10-16T03:14:55;5.38;;;1.33;;
23745;SDS011;12053;48.878;9.632;2022-10-16T03:17:23;3.58;;;1.50;;
23745;SDS011;12053;48.878;9.632;2022-10-16T03:19:50;1.35;;;1.25;;
23745;SDS011;12053;48.878;9.632;2022-10-16T03:22:17;3.30;;;1.55;;
23745;SDS011;12053;48.878;9.632;2022-10-16T03:24:44;1.58;;;1.08;;
23745;SDS011;12053;48.878;9.632;2022-10-16T03:27:12;3.38;;;1.40;;
23745;SDS011;12053;48.878;9.632;2022-10-16T03:29:39;3.45;;;1.30;;
23745;SDS011;12053;48.878;9.632;2022-10-16T03:32:06;2.83;;;1.40;;
23745;SDS011;12053;48.878;9.632;2022-10-16T03:34:33;4.05;;;1.40;;
23745;SDS011;12053;48.878;9.632;2022-10-16T03:37:00;1.58;;;1.20;;
23745;SDS011;12053;48.878;9.632;2022-10-16T03:39:27;2.50;;;1.30;;
23745;SDS011;12053;48.878;9.632;2022-10-16T03:41:54;1.45;;;1.23;;
23745;SDS011;12053;48.878;9.632;2022-10-16T03:44:21;3.10;;;1.55;;
23745;SDS011;12053;48.878;9.632;2022-10-16T03:46:48;3.00;;;1.20;;
23745;SDS011;12053;48.878;9.632;2022-10-16T03:49:15;3.63;;;1.25;;
23745;SDS011;12053;48.878;9.632;2022-10-16T03:51:42;3.08;;;1.13;;
23745;SDS011;12053;48.878;9.632;2022-10-16T03:54:10;1.30;;;1.17;;
23745;SDS011;12053;48.878;9.632;2022-10-16T03:56:37;1.58;;;1.48;;
23745;SDS011;12053;48.878;9.632;2022-10-16T03:59:04;2.42;;;1.40;;
23745;SDS011;12053;48.878;9.632;2022-10-16T04:01:31;4.22;;;1.30;;
23745;SDS011;12053;48.878;9.632;2022-10-16T04:03:59;5.57;;;1.75;;
23745;SDS011;12053;48.878;9.632;2022-10-16T04:06:26;5.30;;;1.92;;
23745;SDS011;12053;48.878;9.632;2022-10-16T04:08:53;3.50;;;1.45;;
23745;SDS011;12053;48.878;9.632;2022-10-16T04:11:20;3.10;;;2.08;;
23745;SDS011;12053;48.878;9.632;2022-10-16T04:13:47;3.15;;;2.10;;
23745;SDS011;12053;48.878;9.632;2022-10-16T04:16:14;5.88;;;2.00;;
23745;SDS011;12053;48.878;9.632;2022-10-16T04:18:41;3.67;;;2.08;;
23745;SDS011;12053;48.878;9.632;2022-10-16T04:21:08;5.63;;;2.50;;
23745;SDS011;12053;48.878;9.632;2022-10-16T04:23:35;2.35;;;2.08;;
23745;SDS011;12053;48.878;9.632;2022-10-16T04:26:02;2.83;;;2.53;;
23745;SDS011;12053;48.878;9.632;2022-10-16T04:28:29;3.60;;;2.30;;
23745;SDS011;12053;48.878;9.632;2022-10-16T04:30:57;2.80;;;1.77;;
23745;SDS011;12053;48.878;9.632;2022-10-16T04:33:24;2.13;;;1.80;;
23745;SDS011;12053;48.878;9.632;2022-10-16T04:35:57;2.08;;;1.80;;
23745;SDS011;12053;48.878;9.632;2022-10-16T04:38:24;2.03;;;1.52;;
23745;SDS011;12053;48.878;9.632;2022-10-16T04:40:52;3.00;;;1.63;;
23745;SDS011;12053;48.878;9.632;2022-10-16T04:43:19;3.85;;;2.20;;
23745;SDS011;12053;48.878;9.632;2022-10-16T04:45:47;5.68;;;2.00;;
23745;SDS011;12053;48.878;9.632;2022-10-16T04:48:16;2.25;;;1.95;;
23745;SDS011;12053;48.878;9.632;2022-10-16T04:50:44;3.20;;;1.70;;
23745;SDS011;12053;48.878;9.632;2022-10-16T04:53:13;3.53;;;1.88;;
23745;SDS011;12053;48.878;9.632;2022-10-16T04:55:40;3.22;;;2.00;;
23745;SDS011;12053;48.878;9.632;2022-10-16T04:58:08;2.13;;;1.75;;
23745;SDS011;12053;48.878;9.632;2022-10-16T05:00:35;2.95;;;1.90;;
23745;SDS011;12053;48.878;9.632;2022-10-16T05:03:04;2.55;;;1.75;;
23745;SDS011;12053;48.878;9.632;2022-10-16T05:05:34;5.65;;;1.88;;
23745;SDS011;12053;48.878;9.632;2022-10-16T05:08:02;3.75;;;2.05;;
23745;SDS011;12053;48.878;9.632;2022-10-16T05:10:30;3.47;;;2.97;;
23745;SDS011;12053;48.878;9.632;2022-10-16T05:12:57;8.77;;;4.47;;
23745;SDS011;12053;48.878;9.632;2022-10-16T05:15:24;6.35;;;4.93;;
23745;SDS011;12053;48.878;9.632;2022-10-16T05:17:54;6.00;;;4.90;;
23745;SDS011;12053;48.878;9.632;2022-10-16T05:20:22;10.00;;;5.07;;
23745;SDS011;12053;48.878;9.632;2022-10-16T05:22:49;8.25;;;4.35;;
23745;SDS011;12053;48.878;9.632;2022-10-16T05:25:16;5.63;;;4.40;;
23745;SDS011;12053;48.878;9.632;2022-10-16T05:27:46;9.45;;;4.63;;
23745;SDS011;12053;48.878;9.632;2022-10-16T05:30:14;7.78;;;5.57;;
23745;SDS011;12053;48.878;9.632;2022-10-16T05:32:41;6.30;;;5.07;;
23745;SDS011;12053;48.878;9.632;2022-10-16T05:35:12;8.82;;;4.50;;
23745;SDS011;12053;48.878;9.632;2022-10-16T05:37:39;8.38;;;5.10;;
23745;SDS011;12053;48.878;9.632;2022-10-16T05:40:06;6.80;;;4.80;;
23745;SDS011;12053;48.878;9.632;2022-10-16T05:42:34;6.07;;;5.15;;
23745;SDS011;12053;48.878;9.632;2022-10-16T05:45:01;5.90;;;4.72;;
23745;SDS011;12053;48.878;9.632;2022-10-16T05:47:28;6.72;;;5.35;;
23745;SDS011;12053;48.878;9.632;2022-10-16T05:49:55;7.15;;;6.18;;
23745;SDS011;12053;48.878;9.632;2022-10-16T05:52:22;5.70;;;5.05;;
23745;SDS011;12053;48.878;9.632;2022-10-16T05:54:49;8.25;;;5.50;;
23745;SDS011;12053;48.878;9.632;2022-10-16T05:57:16;9.05;;;5.63;;
23745;SDS011;12053;48.878;9.632;2022-10-16T05:59:43;9.27;;;5.43;;
23745;SDS011;12053;48.878;9.632;2022-10-16T06:02:14;7.63;;;5.00;;
23745;SDS011;12053;48.878;9.632;2022-10-16T06:04:41;5.38;;;3.38;;
23745;SDS011;12053;48.878;9.632;2022-10-16T06:07:08;4.05;;;3.65;;
23745;SDS011;12053;48.878;9.632;2022-10-16T06:09:35;19.48;;;15.32;;
23745;SDS011;12053;48.878;9.632;2022-10-16T06:12:02;11.23;;;9.77;;
23745;SDS011;12053;48.878;9.632;2022-10-16T06:14:29;10.90;;;6.40;;
23745;SDS011;12053;48.878;9.632;2022-10-16T06:16:56;10.50;;;7.05;;
23745;SDS011;12053;48.878;9.632;2022-10-16T06:19:24;14.60;;;9.82;;
23745;SDS011;12053;48.878;9.632;2022-10-16T06:21:51;17.60;;;9.80;;
23745;SDS011;12053;48.878;9.632;2022-10-16T06:24:18;15.43;;;8.13;;
23745;SDS011;12053;48.878;9.632;2022-10-16T06:26:45;13.75;;;7.07;;
23745;SDS011;12053;48.878;9.632;2022-10-16T06:29:12;10.18;;;7.15;;
23745;SDS011;12053;48.878;9.632;2022-10-16T06:31:39;10.80;;;6.82;;
23745;SDS011;12053;48.878;9.632;2022-10-16T06:34:08;13.88;;;9.25;;
23745;SDS011;12053;48.878;9.632;2022-10-16T06:36:37;8.57;;;6.15;;
23745;SDS011;12053;48.878;9.632;2022-10-16T06:39:04;5.90;;;4.65;;
23745;SDS011;12053;48.878;9.632;2022-10-16T06:41:33;4.60;;;4.13;;
23745;SDS011;12053;48.878;9.632;2022-10-16T06:44:00;6.03;;;4.63;;
23745;SDS011;12053;48.878;9.632;2022-10-16T06:46:27;7.05;;;4.72;;
23745;SDS011;12053;48.878;9.632;2022-10-16T06:48:55;6.95;;;5.07;;
23745;SDS011;12053;48.878;9.632;2022-10-16T06:51:22;9.45;;;5.22;;
23745;SDS011;12053;48.878;9.632;2022-10-16T06:53:53;7.05;;;5.03;;
23745;SDS011;12053;48.878;9.632;2022-10-16T06:56:30;4.75;;;4.10;;
23745;SDS011;12053;48.878;9.632;2022-10-16T06:58:58;5.13;;;4.20;;
23745;SDS011;12053;48.878;9.632;2022-10-16T07:01:25;6.97;;;3.88;;
23745;SDS011;12053;48.878;9.632;2022-10-16T07:03:53;4.47;;;3.45;;
23745;SDS011;12053;48.878;9.632;2022-10-16T07:06:21;3.88;;;2.60;;
23745;SDS011;12053;48.878;9.632;2022-10-16T07:08:48;2.60;;;2.30;;
23745;SDS011;12053;48.878;9.632;2022-10-16T07:11:16;2.65;;;2.20;;
23745;SDS011;12053;48.878;9.632;2022-10-16T07:13:44;9.02;;;3.03;;
23745;SDS011;12053;48.878;9.632;2022-10-16T07:16:20;9.38;;;3.42;;
23745;SDS011;12053;48.878;9.632;2022-10-16T07:18:47;5.82;;;3.15;;
23745;SDS011;12053;48.878;9.632;2022-10-16T07:21:16;5.55;;;3.30;;
23745;SDS011;12053;48.878;9.632;2022-10-16T07:23:49;5.30;;;2.90;;
23745;SDS011;12053;48.878;9.632;2022-10-16T07:26:17;9.77;;;3.63;;
23745;SDS011;12053;48.878;9.632;2022-10-16T07:28:44;4.97;;;2.97;;
23745;SDS011;12053;48.878;9.632;2022-10-16T07:31:12;4.25;;;3.03;;
23745;SDS011;12053;48.878;9.632;2022-10-16T07:33:40;4.28;;;2.70;;
23745;SDS011;12053;48.878;9.632;2022-10-16T07:36:09;3.42;;;2.80;;
23745;SDS011;12053;48.878;9.632;2022-10-16T07:38:41;4.45;;;2.92;;
23745;SDS011;12053;48.878;9.632;2022-10-16T07:41:10;3.65;;;3.35;;
23745;SDS011;12053;48.878;9.632;2022-10-16T07:43:38;6.53;;;3.30;;
23745;SDS011;12053;48.878;9.632;2022-10-16T07:46:05;7.75;;;5.38;;
23745;SDS011;12053;48.878;9.632;2022-10-16T07:48:33;17.63;;;7.35;;
23745;SDS011;12053;48.878;9.632;2022-10-16T07:51:01;14.75;;;8.02;;
23745;SDS011;12053;48.878;9.632;2022-10-16T07:53:29;13.40;;;8.20;;
23745;SDS011;12053;48.878;9.632;2022-10-16T07:55:57;14.25;;;7.90;;
23745;SDS011;12053;48.878;9.632;2022-10-16T07:58:24;12.30;;;7.68;;
23745;SDS011;12053;48.878;9.632;2022-10-16T08:00:51;11.45;;;7.40;;
23745;SDS011;12053;48.878;9.632;2022-10-16T08:03:18;12.63;;;7.32;;
23745;SDS011;12053;48.878;9.632;2022-10-16T08:05:46;10.55;;;6.78;;
23745;SDS011;12053;48.878;9.632;2022-10-16T08:08:13;8.52;;;4.88;;
23745;SDS011;12053;48.878;9.632;2022-10-16T08:10:40;6.93;;;5.50;;
23745;SDS011;12053;48.878;9.632;2022-10-16T08:13:08;8.13;;;5.32;;
23745;SDS011;12053;48.878;9.632;2022-10-16T08:15:35;5.38;;;3.72;;
23745;SDS011;12053;48.878;9.632;2022-10-16T08:18:03;5.53;;;2.90;;
23745;SDS011;12053;48.878;9.632;2022-10-16T08:20:31;4.35;;;2.53;;
23745;SDS011;12053;48.878;9.632;2022-10-16T08:22:59;3.78;;;3.33;;
23745;SDS011;12053;48.878;9.632;2022-10-16T08:25:26;3.88;;;2.65;;
23745;SDS011;12053;48.878;9.632;2022-10-16T08:27:54;3.47;;;2.63;;
23745;SDS011;12053;48.878;9.632;2022-10-16T08:30:22;5.95;;;2.80;;
23745;SDS011;12053;48.878;9.632;2022-10-16T08:32:49;8.05;;;2.65;;
23745;SDS011;12053;48.878;9.632;2022-10-16T08:35:16;5.82;;;2.83;;
23745;SDS011;12053;48.878;9.632;2022-10-16T08:37:43;5.85;;;3.50;;
23745;SDS011;12053;48.878;9.632;2022-10-16T08:40:21;11.52;;;3.60;;
23745;SDS011;12053;48.878;9.632;2022-10-16T08:50:26;4.88;;;3.22;;
23745;SDS011;12053;48.878;9.632;2022-10-16T08:52:54;5.22;;;2.78;;
23745;SDS011;12053;48.878;9.632;2022-10-16T08:55:32;6.55;;;2.13;;
23745;SDS011;12053;48.878;9.632;2022-10-16T08:58:00;3.80;;;1.33;;
23745;SDS011;12053;48.878;9.632;2022-10-16T09:00:28;1.35;;;1.17;;
23745;SDS011;12053;48.878;9.632;2022-10-16T09:08:01;4.60;;;1.50;;
23745;SDS011;12053;48.878;9.632;2022-10-16T09:13:39;4.20;;;1.30;;
23745;SDS011;12053;48.878;9.632;2022-10-16T09:16:17;3.65;;;1.10;;
23745;SDS011;12053;48.878;9.632;2022-10-16T09:18:55;5.35;;;1.45;;
23745;SDS011;12053;48.878;9.632;2022-10-16T09:24:09;2.63;;;1.25;;
23745;SDS011;12053;48.878;9.632;2022-10-16T09:26:38;4.15;;;1.27;;
23745;SDS011;12053;48.878;9.632;2022-10-16T09:29:05;4.47;;;1.30;;
23745;SDS011;12053;48.878;9.632;2022-10-16T09:31:33;4.45;;;1.30;;
23745;SDS011;12053;48.878;9.632;2022-10-16T09:34:02;5.03;;;1.15;;
23745;SDS011;12053;48.878;9.632;2022-10-16T09:36:42;4.43;;;1.35;;
23745;SDS011;12053;48.878;9.632;2022-10-16T09:39:11;3.28;;;1.25;;
23745;SDS011;12053;48.878;9.632;2022-10-16T09:41:43;2.05;;;1.17;;
23745;SDS011;12053;48.878;9.632;2022-10-16T09:44:17;3.65;;;1.17;;
23745;SDS011;12053;48.878;9.632;2022-10-16T09:46:46;3.70;;;1.17;;
23745;SDS011;12053;48.878;9.632;2022-10-16T09:49:31;2.30;;;1.38;;
23745;SDS011;12053;48.878;9.632;2022-10-16T09:52:32;2.63;;;1.20;;
23745;SDS011;12053;48.878;9.632;2022-10-16T09:57:19;3.35;;;1.60;;
23745;SDS011;12053;48.878;9.632;2022-10-16T09:59:47;6.28;;;1.80;;
23745;SDS011;12053;48.878;9.632;2022-10-16T10:02:15;6.00;;;1.73;;
23745;SDS011;12053;48.878;9.632;2022-10-16T10:04:53;4.80;;;1.60;;
23745;SDS011;12053;48.878;9.632;2022-10-16T10:07:23;3.50;;;1.55;;
23745;SDS011;12053;48.878;9.632;2022-10-16T10:09:52;5.47;;;1.77;;
23745;SDS011;12053;48.878;9.632;2022-10-16T10:12:23;3.65;;;1.88;;
23745;SDS011;12053;48.878;9.632;2022-10-16T10:14:56;6.68;;;2.38;;
23745;SDS011;12053;48.878;9.632;2022-10-16T10:17:25;4.13;;;2.10;;
23745;SDS011;12053;48.878;9.632;2022-10-16T10:22:31;3.92;;;1.30;;
23745;SDS011;12053;48.878;9.632;2022-10-16T10:30:35;2.97;;;1.30;;
23745;SDS011;12053;48.878;9.632;2022-10-16T10:35:44;1.48;;;1.00;;
23745;SDS011;12053;48.878;9.632;2022-10-16T10:40:48;3.10;;;1.20;;
23745;SDS011;12053;48.878;9.632;2022-10-16T10:45:48;2.58;;;0.93;;
23745;SDS011;12053;48.878;9.632;2022-10-16T10:48:21;2.50;;;1.10;;
23745;SDS011;12053;48.878;9.632;2022-10-16T10:53:52;1.67;;;0.93;;
23745;SDS011;12053;48.878;9.632;2022-10-16T10:56:24;7.30;;;1.10;;
23745;SDS011;12053;48.878;9.632;2022-10-16T11:01:32;3.47;;;0.90;;
23745;SDS011;12053;48.878;9.632;2022-10-16T11:06:29;2.88;;;1.15;;
23745;SDS011;12053;48.878;9.632;2022-10-16T11:11:33;1.80;;;1.10;;
23745;SDS011;12053;48.878;9.632;2022-10-16T11:16:39;2.40;;;1.17;;
23745;SDS011;12053;48.878;9.632;2022-10-16T11:19:14;2.55;;;1.10;;
23745;SDS011;12053;48.878;9.632;2022-10-16T11:21:51;3.85;;;1.20;;
23745;SDS011;12053;48.878;9.632;2022-10-16T11:24:30;1.77;;;1.00;;
23745;SDS011;12053;48.878;9.632;2022-10-16T11:27:03;2.45;;;1.10;;
23745;SDS011;12053;48.878;9.632;2022-10-16T11:29:32;1.63;;;0.90;;
23745;SDS011;12053;48.878;9.632;2022-10-16T11:32:06;1.92;;;1.30;;
23745;SDS011;12053;48.878;9.632;2022-10-16T11:34:38;3.75;;;1.00;;
23745;SDS011;12053;48.878;9.632;2022-10-16T11:39:35;1.15;;;1.00;;
23745;SDS011;12053;48.878;9.632;2022-10-16T11:42:10;5.95;;;0.90;;
23745;SDS011;12053;48.878;9.632;2022-10-16T11:52:55;3.17;;;1.08;;
23745;SDS011;12053;48.878;9.632;2022-10-16T11:55:58;2.83;;;1.15;;
23745;SDS011;12053;48.878;9.632;2022-10-16T12:08:58;6.40;;;1.08;;
23745;SDS011;12053;48.878;9.632;2022-10-16T12:17:00;2.00;;;1.40;;
23745;SDS011;12053;48.878;9.632;2022-10-16T12:19:27;4.35;;;1.33;;
23745;SDS011;12053;48.878;9.632;2022-10-16T12:21:59;5.70;;;1.20;;
23745;SDS011;12053;48.878;9.632;2022-10-16T12:26:59;2.88;;;1.05;;
23745;SDS011;12053;48.878;9.632;2022-10-16T12:31:57;3.67;;;1.30;;
23745;SDS011;12053;48.878;9.632;2022-10-16T12:34:28;1.60;;;1.10;;
23745;SDS011;12053;48.878;9.632;2022-10-16T12:36:56;2.03;;;1.13;;
23745;SDS011;12053;48.878;9.632;2022-10-16T12:39:34;3.22;;;1.08;;
23745;SDS011;12053;48.878;9.632;2022-10-16T12:42:03;5.82;;;1.15;;
23745;SDS011;12053;48.878;9.632;2022-10-16T12:44:35;1.67;;;1.10;;
23745;SDS011;12053;48.878;9.632;2022-10-16T12:47:02;6.03;;;1.25;;
23745;SDS011;12053;48.878;9.632;2022-10-16T12:49:35;1.58;;;1.15;;
23745;SDS011;12053;48.878;9.632;2022-10-16T12:52:04;1.37;;;0.93;;
23745;SDS011;12053;48.878;9.632;2022-10-16T12:54:34;1.75;;;1.20;;
23745;SDS011;12053;48.878;9.632;2022-10-16T13:10:20;2.55;;;1.38;;
23745;SDS011;12053;48.878;9.632;2022-10-16T13:20:56;3.92;;;1.30;;
23745;SDS011;12053;48.878;9.632;2022-10-16T13:26:41;3.42;;;1.10;;
23745;SDS011;12053;48.878;9.632;2022-10-16T13:28:45;1.88;;;1.20;;
23745;SDS011;12053;48.878;9.632;2022-10-16T13:31:14;1.75;;;1.10;;
23745;SDS011;12053;48.878;9.632;2022-10-16T13:33:43;3.03;;;1.00;;
23745;SDS011;12053;48.878;9.632;2022-10-16T13:36:18;2.83;;;1.27;;
23745;SDS011;12053;48.878;9.632;2022-10-16T13:38:46;2.33;;;1.00;;
23745;SDS011;12053;48.878;9.632;2022-10-16T13:41:14;1.90;;;1.10;;
23745;SDS011;12053;48.878;9.632;2022-10-16T13:43:45;1.85;;;1.10;;
23745;SDS011;12053;48.878;9.632;2022-10-16T13:46:20;1.77;;;1.10;;
23745;SDS011;12053;48.878;9.632;2022-10-16T13:48:57;1.27;;;1.00;;
23745;SDS011;12053;48.878;9.632;2022-10-16T13:51:25;2.22;;;1.23;;
23745;SDS011;12053;48.878;9.632;2022-10-16T13:53:52;2.95;;;1.13;;
23745;SDS011;12053;48.878;9.632;2022-10-16T13:56:22;2.55;;;1.00;;
23745;SDS011;12053;48.878;9.632;2022-10-16T13:59:02;2.83;;;1.10;;
23745;SDS011;12053;48.878;9.632;2022-10-16T14:01:31;4.57;;;0.90;;
23745;SDS011;12053;48.878;9.632;2022-10-16T14:04:04;2.03;;;1.00;;
23745;SDS011;12053;48.878;9.632;2022-10-16T14:06:32;5.47;;;1.30;;
23745;SDS011;12053;48.878;9.632;2022-10-16T14:09:06;5.93;;;1.13;;
23745;SDS011;12053;48.878;9.632;2022-10-16T14:11:33;2.72;;;1.27;;
23745;SDS011;12053;48.878;9.632;2022-10-16T14:14:04;1.95;;;1.10;;
23745;SDS011;12053;48.878;9.632;2022-10-16T14:16:31;3.95;;;1.33;;
23745;SDS011;12053;48.878;9.632;2022-10-16T14:18:59;2.25;;;1.23;;
23745;SDS011;12053;48.878;9.632;2022-10-16T14:21:27;3.30;;;1.20;;
23745;SDS011;12053;48.878;9.632;2022-10-16T14:23:55;1.52;;;1.20;;
23745;SDS011;12053;48.878;9.632;2022-10-16T14:26:24;3.33;;;1.13;;
23745;SDS011;12053;48.878;9.632;2022-10-16T14:29:10;1.40;;;1.30;;
23745;SDS011;12053;48.878;9.632;2022-10-16T14:31:37;3.50;;;1.20;;
23745;SDS011;12053;48.878;9.632;2022-10-16T14:34:22;2.72;;;1.30;;
23745;SDS011;12053;48.878;9.632;2022-10-16T14:36:50;2.45;;;1.20;;
23745;SDS011;12053;48.878;9.632;2022-10-16T14:39:18;2.38;;;1.42;;
23745;SDS011;12053;48.878;9.632;2022-10-16T14:41:47;3.25;;;1.50;;
23745;SDS011;12053;48.878;9.632;2022-10-16T14:44:14;1.98;;;1.40;;
23745;SDS011;12053;48.878;9.632;2022-10-16T14:46:43;1.40;;;1.30;;
23745;SDS011;12053;48.878;9.632;2022-10-16T14:51:38;7.78;;;1.67;;
23745;SDS011;12053;48.878;9.632;2022-10-16T14:54:14;5.55;;;1.77;;
23745;SDS011;12053;48.878;9.632;2022-10-16T14:56:52;2.33;;;1.55;;
23745;SDS011;12053;48.878;9.632;2022-10-16T14:59:23;1.85;;;1.20;;
23745;SDS011;12053;48.878;9.632;2022-10-16T15:01:51;1.77;;;1.10;;
23745;SDS011;12053;48.878;9.632;2022-10-16T15:04:18;3.17;;;1.60;;
23745;SDS011;12053;48.878;9.632;2022-10-16T15:06:45;4.70;;;1.30;;
23745;SDS011;12053;48.878;9.632;2022-10-16T15:09:13;8.18;;;1.75;;
23745;SDS011;12053;48.878;9.632;2022-10-16T15:11:40;3.22;;;1.55;;
23745;SDS011;12053;48.878;9.632;2022-10-16T15:14:11;8.98;;;1.60;;
23745;SDS011;12053;48.878;9.632;2022-10-16T15:16:40;4.32;;;1.48;;
23745;SDS011;12053;48.878;9.632;2022-10-16T15:19:07;2.35;;;1.60;;
23745;SDS011;12053;48.878;9.632;2022-10-16T15:21:34;4.60;;;1.67;;
23745;SDS011;12053;48.878;9.632;2022-10-16T15:24:01;2.60;;;1.67;;
23745;SDS011;12053;48.878;9.632;2022-10-16T15:26:29;3.90;;;1.83;;
23745;SDS011;12053;48.878;9.632;2022-10-16T15:28:56;1.42;;;1.33;;
23745;SDS011;12053;48.878;9.632;2022-10-16T15:31:24;3.80;;;1.60;;
23745;SDS011;12053;48.878;9.632;2022-10-16T15:33:52;2.65;;;1.50;;
23745;SDS011;12053;48.878;9.632;2022-10-16T15:36:25;2.20;;;1.40;;
23745;SDS011;12053;48.878;9.632;2022-10-16T15:38:52;2.58;;;1.55;;
23745;SDS011;12053;48.878;9.632;2022-10-16T15:41:20;3.53;;;1.98;;
23745;SDS011;12053;48.878;9.632;2022-10-16T15:43:50;2.47;;;1.60;;
23745;SDS011;12053;48.878;9.632;2022-10-16T15:46:18;6.80;;;3.75;;
23745;SDS011;12053;48.878;9.632;2022-10-16T15:48:46;5.78;;;1.95;;
23745;SDS011;12053;48.878;9.632;2022-10-16T15:51:13;5.28;;;1.90;;
23745;SDS011;12053;48.878;9.632;2022-10-16T15:53:41;5.28;;;2.90;;
23745;SDS011;12053;48.878;9.632;2022-10-16T15:56:08;5.38;;;2.78;;
23745;SDS011;12053;48.878;9.632;2022-10-16T15:58:37;2.28;;;2.08;;
23745;SDS011;12053;48.878;9.632;2022-10-16T16:01:04;2.88;;;1.98;;
23745;SDS011;12053;48.878;9.632;2022-10-16T16:03:32;4.78;;;2.15;;
23745;SDS011;12053;48.878;9.632;2022-10-16T16:06:03;9.07;;;2.90;;
23745;SDS011;12053;48.878;9.632;2022-10-16T16:08:30;6.38;;;3.67;;
23745;SDS011;12053;48.878;9.632;2022-10-16T16:11:04;6.95;;;3.03;;
23745;SDS011;12053;48.878;9.632;2022-10-16T16:13:31;6.00;;;2.60;;
23745;SDS011;12053;48.878;9.632;2022-10-16T16:15:58;8.77;;;4.95;;
23745;SDS011;12053;48.878;9.632;2022-10-16T16:18:26;10.40;;;4.82;;
23745;SDS011;12053;48.878;9.632;2022-10-16T16:20:54;13.23;;;6.28;;
23745;SDS011;12053;48.878;9.632;2022-10-16T16:23:21;5.65;;;3.90;;
23745;SDS011;12053;48.878;9.632;2022-10-16T16:26:35;5.75;;;3.80;;
23745;SDS011;12053;48.878;9.632;2022-10-16T16:28:36;7.53;;;3.35;;
23745;SDS011;12053;48.878;9.632;2022-10-16T16:31:03;5.22;;;3.42;;
23745;SDS011;12053;48.878;9.632;2022-10-16T16:33:31;11.57;;;5.03;;
23745;SDS011;12053;48.878;9.632;2022-10-16T16:35:58;8.40;;;5.03;;
23745;SDS011;12053;48.878;9.632;2022-10-16T16:38:26;14.07;;;6.68;;
23745;SDS011;12053;48.878;9.632;2022-10-16T16:40:54;8.95;;;5.63;;
23745;SDS011;12053;48.878;9.632;2022-10-16T16:43:27;10.48;;;5.82;;
23745;SDS011;12053;48.878;9.632;2022-10-16T16:45:54;10.27;;;5.50;;
23745;SDS011;12053;48.878;9.632;2022-10-16T16:48:22;8.43;;;4.75;;
23745;SDS011;12053;48.878;9.632;2022-10-16T16:50:49;8.98;;;5.57;;
23745;SDS011;12053;48.878;9.632;2022-10-16T16:53:16;7.22;;;4.85;;
23745;SDS011;12053;48.878;9.632;2022-10-16T16:55:43;7.00;;;3.90;;
23745;SDS011;12053;48.878;9.632;2022-10-16T16:58:10;5.80;;;4.30;;
23745;SDS011;12053;48.878;9.632;2022-10-16T17:00:44;4.75;;;3.25;;
23745;SDS011;12053;48.878;9.632;2022-10-16T17:03:22;7.63;;;5.13;;
23745;SDS011;12053;48.878;9.632;2022-10-16T17:05:59;8.65;;;4.60;;